RJER(METAR)
12/04 16:00
RJER 040700Z 29020G34KT 4000 SN FEW010 SCT015 BKN025 M08/M11 Q1013
RMK A2993=
戻る
トップページへ戻る
IMOC Co,.Ltd.